Crescent Valley, Nevada
Current Conditions -  °F | °C
As of 8:56 PM on Friday 28 Nov 2014 (Local Time) from KEKO Reporting Station
Overcast Overcast  
Wind Chill:   Ceiling: 3900
Heat Index:   Visibility: 10mi
Dew Point: -8°   Wind: 3mph
Humidity: 41%   Direction: 270°W
Pressure: 29.79"   Gusts: NA
Location:  40.42°N, 116.58°W
Report Text: KEKO 290456Z AUTO 27003KT 10SM OVC039 04/M08 A2979 RMK AO2 SLP091 T00391083
Loading
Personal Weather Stations






























Interactive Weather Map New forecast layout! Learn more

10-Day Weather Forecast

Advertisements
Track Severe Weather on mobile